Time;durP1;ratioP1;P1;durP2;ratioP2;P2;SDS_P1;SDS_P2;PMS_P1;PMS_P2;Temp;Humidity;BMP_temperature;BMP_pressure;BME280_temperature;BME280_humidity;BME280_pressure;Samples;Min_cycle;Max_cycle;Signal;HPM_P1;HPM_P2
2022/06/20 00:00:43;;;;;;;5.55;1.50;;;15.10;93.30;;;;;;5013931;28;20077;-42
2022/06/20 00:03:25;;;;;;;5.63;1.88;;;15.20;93.40;;;;;;5012942;28;20065;-42
2022/06/20 00:05:51;;;;;;;5.43;1.40;;;15.10;93.20;;;;;;5002839;28;20054;-43
2022/06/20 00:08:18;;;;;;;7.22;1.55;;;15.10;93.40;;;;;;4999609;28;20537;-42
2022/06/20 00:10:46;;;;;;;5.55;1.45;;;15.10;93.50;;;;;;5023273;28;20441;-42
2022/06/20 00:13:24;;;;;;;5.15;1.45;;;15.00;93.40;;;;;;5012169;28;20081;-42
2022/06/20 00:15:52;;;;;;;9.90;2.28;;;15.00;93.60;;;;;;5015838;28;20074;-43
2022/06/20 00:18:19;;;;;;;6.15;1.60;;;15.00;93.60;;;;;;4996954;28;20042;-43
2022/06/20 00:20:45;;;;;;;7.80;1.67;;;14.90;93.70;;;;;;5013365;28;20108;-43
2022/06/20 00:23:12;;;;;;;6.55;1.70;;;14.90;93.90;;;;;;5012876;28;20096;-43
2022/06/20 00:25:39;;;;;;;6.70;1.27;;;14.80;94.00;;;;;;5010802;28;20077;-42
2022/06/20 00:28:07;;;;;;;8.38;1.65;;;14.80;94.10;;;;;;4995419;28;20053;-43
2022/06/20 00:30:35;;;;;;;6.85;1.60;;;14.80;94.30;;;;;;4994563;28;20053;-43
2022/06/20 00:33:01;;;;;;;5.93;1.95;;;14.70;94.20;;;;;;5013093;28;20049;-43
2022/06/20 00:35:28;;;;;;;5.63;1.42;;;14.70;94.20;;;;;;5011143;28;20085;-43
2022/06/20 00:37:57;;;;;;;6.15;1.80;;;14.70;94.70;;;;;;5008558;28;20081;-43
2022/06/20 00:40:26;;;;;;;8.68;1.92;;;14.60;94.50;;;;;;5002066;28;20082;-44
2022/06/20 00:42:53;;;;;;;7.00;1.98;;;14.60;94.60;;;;;;4996370;28;20096;-44
2022/06/20 00:45:21;;;;;;;6.10;1.83;;;14.60;94.90;;;;;;4979954;28;20078;-42
2022/06/20 00:47:48;;;;;;;9.00;1.95;;;14.60;95.00;;;;;;5002812;28;20101;-43
2022/06/20 00:50:17;;;;;;;10.60;1.83;;;14.60;95.30;;;;;;4992183;28;20050;-43
2022/06/20 00:52:45;;;;;;;7.22;1.38;;;14.60;95.50;;;;;;4975850;28;20066;-42
2022/06/20 00:55:14;;;;;;;10.73;1.70;;;14.60;95.30;;;;;;4998427;28;20061;-43
2022/06/20 00:57:42;;;;;;;6.28;1.70;;;14.50;95.40;;;;;;4996413;28;20053;-42
2022/06/20 01:00:11;;;;;;;12.10;1.80;;;14.50;95.30;;;;;;5000973;28;20046;-42
2022/06/20 01:02:47;;;;;;;9.20;1.92;;;14.60;95.40;;;;;;4993273;28;20100;-42
2022/06/20 01:05:16;;;;;;;10.32;1.98;;;14.60;95.50;;;;;;4982634;28;20528;-42
2022/06/20 01:07:46;;;;;;;7.60;1.88;;;14.60;95.70;;;;;;4983236;28;20069;-42
2022/06/20 01:10:13;;;;;;;9.68;2.20;;;14.60;96.00;;;;;;4989691;28;20100;-43
2022/06/20 01:12:45;;;;;;;8.77;1.85;;;14.50;96.30;;;;;;4991880;28;20456;-43
2022/06/20 01:15:20;;;;;;;5.47;1.73;;;14.50;96.40;;;;;;4978761;28;20080;-43
2022/06/20 01:17:49;;;;;;;9.43;2.25;;;14.50;96.00;;;;;;5007518;28;20078;-41
2022/06/20 01:20:21;;;;;;;10.32;2.50;;;14.50;96.20;;;;;;4998035;28;20124;-44
2022/06/20 01:23:04;;;;;;;7.00;2.00;;;14.50;96.80;;;;;;4984339;28;20088;-43
2022/06/20 01:25:40;;;;;;;9.18;1.90;;;14.50;96.80;;;;;;4983266;28;20602;-43
2022/06/20 01:28:10;;;;;;;7.00;1.75;;;14.50;96.60;;;;;;4993837;28;20085;-43
2022/06/20 01:30:39;;;;;;;11.18;2.33;;;14.50;96.50;;;;;;4956508;28;20093;-43
2022/06/20 01:33:06;;;;;;;10.20;2.00;;;14.50;96.70;;;;;;4991941;28;20081;-43
2022/06/20 01:38:18;;;;;;;14.27;2.42;;;14.40;97.10;;;;;;4993079;28;21543;-43
2022/06/20 01:43:29;;;;;;;6.85;2.30;;;14.40;97.10;;;;;;4992635;28;20482;-43
2022/06/20 01:45:59;;;;;;;7.15;1.77;;;14.40;96.80;;;;;;4992999;28;20066;-43
2022/06/20 01:48:28;;;;;;;14.63;2.20;;;14.30;96.60;;;;;;4976172;28;20043;-43
2022/06/20 01:50:54;;;;;;;6.13;1.70;;;14.30;96.70;;;;;;4974848;28;20261;-43
2022/06/20 01:53:23;;;;;;;12.45;1.80;;;14.40;96.40;;;;;;4974758;28;20129;-43
2022/06/20 01:55:51;;;;;;;10.55;2.88;;;14.30;96.20;;;;;;4978307;28;20129;-44
2022/06/20 01:58:20;;;;;;;8.98;2.20;;;14.30;96.80;;;;;;4990289;28;20115;-43
2022/06/20 02:00:48;;;;;;;9.13;2.42;;;14.30;97.00;;;;;;4987119;28;20130;-43
2022/06/20 02:03:16;;;;;;;7.47;1.98;;;14.30;97.10;;;;;;4990626;28;20521;-43
2022/06/20 02:05:44;;;;;;;8.77;2.72;;;14.30;97.20;;;;;;4977772;28;20093;-43
2022/06/20 02:08:10;;;;;;;8.27;2.10;;;14.20;97.20;;;;;;4991393;28;20553;-43
2022/06/20 02:10:41;;;;;;;12.35;2.30;;;14.20;97.20;;;;;;5004216;28;20559;-43
2022/06/20 02:13:07;;;;;;;7.45;2.22;;;14.20;97.30;;;;;;4996290;28;20075;-43
2022/06/20 02:15:34;;;;;;;9.13;2.20;;;14.20;97.50;;;;;;4992687;28;20081;-43
2022/06/20 02:18:03;;;;;;;9.52;2.10;;;14.20;97.70;;;;;;5012011;28;20046;-42
2022/06/20 02:20:31;;;;;;;11.90;2.63;;;14.10;97.80;;;;;;4982580;28;20084;-42
2022/06/20 02:22:58;;;;;;;9.57;2.13;;;14.10;97.90;;;;;;5004751;28;20073;-43
2022/06/20 02:25:26;;;;;;;6.47;1.60;;;14.00;98.00;;;;;;4987529;28;20084;-43
2022/06/20 02:27:55;;;;;;;4.63;1.60;;;14.00;97.80;;;;;;4976699;28;20544;-42
2022/06/20 02:30:22;;;;;;;6.03;1.90;;;14.00;97.60;;;;;;4984617;28;20130;-42
2022/06/20 02:32:52;;;;;;;6.53;1.95;;;13.90;97.50;;;;;;4974289;28;20070;-43
2022/06/20 02:35:20;;;;;;;6.55;2.10;;;13.90;97.40;;;;;;5001771;28;20041;-42
2022/06/20 02:37:47;;;;;;;8.25;2.58;;;13.90;97.30;;;;;;5007423;28;20053;-43
2022/06/20 02:40:15;;;;;;;4.20;1.58;;;13.90;97.10;;;;;;5011814;28;20441;-43
2022/06/20 02:42:44;;;;;;;9.13;2.25;;;13.90;97.00;;;;;;5016602;28;20045;-44
2022/06/20 02:45:11;;;;;;;5.13;2.00;;;13.90;96.90;;;;;;5014390;28;20041;-42
2022/06/20 02:47:39;;;;;;;8.07;2.00;;;13.80;96.90;;;;;;4999543;28;20050;-43
2022/06/20 02:50:07;;;;;;;5.55;1.55;;;13.80;96.90;;;;;;5013068;28;20078;-43
2022/06/20 02:52:36;;;;;;;7.90;1.70;;;13.80;96.80;;;;;;5011362;28;20478;-43
2022/06/20 02:55:03;;;;;;;9.70;1.98;;;13.70;96.60;;;;;;5010489;28;20073;-43
2022/06/20 02:57:33;;;;;;;10.20;2.08;;;13.70;97.10;;;;;;5011244;28;20054;-43
2022/06/20 02:59:59;;;;;;;7.68;2.40;;;13.70;97.50;;;;;;4993075;28;20125;-43
2022/06/20 03:02:28;;;;;;;6.55;1.70;;;13.60;97.50;;;;;;4993245;28;20049;-43
2022/06/20 03:04:55;;;;;;;7.53;2.13;;;13.60;97.40;;;;;;5007541;28;20075;-43
2022/06/20 03:07:23;;;;;;;7.60;1.92;;;13.50;97.20;;;;;;5005766;28;20053;-42
2022/06/20 03:09:55;;;;;;;5.85;1.58;;;13.50;97.20;;;;;;5014056;28;20081;-42
2022/06/20 03:12:25;;;;;;;9.40;2.03;;;13.50;97.10;;;;;;5002121;28;20045;-43
2022/06/20 03:14:53;;;;;;;7.05;1.90;;;13.40;97.10;;;;;;5013909;28;20081;-43
2022/06/20 03:17:21;;;;;;;9.20;2.00;;;13.40;97.10;;;;;;5014115;28;20536;-43
2022/06/20 03:19:54;;;;;;;7.28;2.13;;;13.40;97.20;;;;;;5021540;28;20054;-44
2022/06/20 03:22:22;;;;;;;6.07;2.35;;;13.40;97.20;;;;;;4992659;28;20072;-43
2022/06/20 03:24:50;;;;;;;7.85;1.92;;;13.40;97.30;;;;;;5014493;28;20100;-43
2022/06/20 03:27:21;;;;;;;7.78;2.17;;;13.30;97.20;;;;;;5004008;28;20513;-44
2022/06/20 03:29:50;;;;;;;7.75;1.90;;;13.30;97.20;;;;;;5001469;28;20131;-44
2022/06/20 03:32:17;;;;;;;5.72;2.00;;;13.30;97.00;;;;;;5015716;28;20046;-43
2022/06/20 03:34:43;;;;;;;8.35;2.10;;;13.20;97.10;;;;;;5011007;28;20128;-42
2022/06/20 03:37:10;;;;;;;4.40;1.73;;;13.20;97.20;;;;;;5002123;28;20046;-43
2022/06/20 03:39:37;;;;;;;7.30;2.13;;;13.20;97.30;;;;;;4993348;28;20063;-43
2022/06/20 03:42:06;;;;;;;8.15;1.88;;;13.20;97.30;;;;;;4990394;28;20466;-43
2022/06/20 03:44:35;;;;;;;5.90;1.65;;;13.20;97.30;;;;;;4974524;28;20429;-43
2022/06/20 03:47:04;;;;;;;6.65;2.10;;;13.20;97.40;;;;;;4991137;28;20074;-44
2022/06/20 03:49:33;;;;;;;9.02;2.58;;;13.10;97.30;;;;;;4994829;28;20543;-43
2022/06/20 03:52:02;;;;;;;7.85;2.10;;;13.10;97.40;;;;;;4993335;28;20218;-43
2022/06/20 03:54:30;;;;;;;7.47;2.25;;;13.10;97.30;;;;;;4992969;28;20088;-43
2022/06/20 03:57:01;;;;;;;8.40;2.40;;;13.10;97.80;;;;;;4993147;28;20133;-43
2022/06/20 03:59:31;;;;;;;6.43;2.45;;;13.10;98.20;;;;;;4988244;28;20494;-44
2022/06/20 04:01:59;;;;;;;5.90;1.83;;;13.00;98.30;;;;;;4975519;28;20054;-44
2022/06/20 04:04:28;;;;;;;5.75;1.80;;;13.00;98.00;;;;;;4991344;28;20062;-43
2022/06/20 04:06:57;;;;;;;6.30;2.08;;;13.00;97.90;;;;;;4993538;28;20047;-43
2022/06/20 04:12:21;;;;;;;6.45;1.67;;;12.90;97.90;;;;;;4989612;28;20038;-43
2022/06/20 04:14:52;;;;;;;6.28;1.60;;;13.00;97.80;;;;;;4975484;28;20072;-43
2022/06/20 04:20:06;;;;;;;4.72;1.65;;;12.90;98.00;;;;;;4994327;28;20047;-43
2022/06/20 04:22:34;;;;;;;7.28;2.08;;;12.90;97.80;;;;;;4977566;28;20101;-44
2022/06/20 04:25:03;;;;;;;8.05;1.73;;;13.00;98.00;;;;;;4992812;28;20122;-44
2022/06/20 04:27:31;;;;;;;7.75;2.20;;;13.00;97.70;;;;;;4987968;28;20069;-44
2022/06/20 04:30:00;;;;;;;4.57;1.65;;;13.00;97.90;;;;;;4993639;28;20073;-44
2022/06/20 04:32:30;;;;;;;10.93;2.53;;;13.00;97.90;;;;;;4997101;28;20485;-43
2022/06/20 04:34:59;;;;;;;6.72;2.03;;;13.00;98.10;;;;;;4983391;28;20486;-43
2022/06/20 04:37:29;;;;;;;7.07;2.20;;;13.10;98.30;;;;;;4993509;28;20545;-43
2022/06/20 04:39:59;;;;;;;7.57;2.70;;;13.10;98.50;;;;;;5008490;28;20108;-44
2022/06/20 04:42:32;;;;;;;7.38;2.53;;;13.10;98.50;;;;;;5011128;28;20046;-43
2022/06/20 04:45:02;;;;;;;12.25;2.20;;;13.10;98.80;;;;;;5007772;28;20513;-43
2022/06/20 04:47:40;;;;;;;10.38;2.80;;;13.10;98.80;;;;;;4995815;28;20433;-44
2022/06/20 04:50:07;;;;;;;8.10;2.05;;;13.20;99.10;;;;;;4995589;28;20125;-43
2022/06/20 04:52:34;;;;;;;11.27;2.55;;;13.20;99.00;;;;;;5009541;28;20453;-43
2022/06/20 04:55:01;;;;;;;8.60;2.30;;;13.10;99.20;;;;;;4991500;28;20053;-43
2022/06/20 04:57:28;;;;;;;7.95;2.13;;;13.20;99.30;;;;;;5010829;28;20053;-43
2022/06/20 04:59:56;;;;;;;10.02;2.30;;;13.30;99.70;;;;;;5012953;28;20082;-43
2022/06/20 05:02:24;;;;;;;9.80;2.65;;;13.30;99.90;;;;;;4984168;28;20125;-43
2022/06/20 05:04:51;;;;;;;6.07;2.28;;;13.30;99.60;;;;;;4985213;28;20042;-44
2022/06/20 05:07:19;;;;;;;9.98;2.80;;;13.30;99.90;;;;;;4990640;28;20086;-44
2022/06/20 05:09:48;;;;;;;14.00;3.03;;;13.40;99.90;;;;;;5005460;28;20038;-43
2022/06/20 05:12:18;;;;;;;13.43;3.05;;;13.40;99.90;;;;;;4985129;28;20050;-43
2022/06/20 05:14:47;;;;;;;9.52;2.55;;;13.50;99.90;;;;;;4996589;28;20490;-44
2022/06/20 05:17:18;;;;;;;14.15;2.90;;;13.50;99.90;;;;;;4992610;28;20046;-43
2022/06/20 05:19:47;;;;;;;13.10;3.05;;;13.50;99.90;;;;;;4995046;28;20041;-43
2022/06/20 05:22:17;;;;;;;9.57;2.55;;;13.60;99.90;;;;;;4992981;28;20046;-43
2022/06/20 05:24:44;;;;;;;17.15;3.38;;;13.70;99.90;;;;;;4993073;28;20112;-43
2022/06/20 05:27:12;;;;;;;7.53;2.65;;;13.80;99.90;;;;;;5000010;28;20225;-42
2022/06/20 05:29:39;;;;;;;13.88;3.03;;;13.80;99.90;;;;;;4994644;28;20073;-42
2022/06/20 05:32:07;;;;;;;10.38;3.15;;;13.90;99.90;;;;;;5012414;28;20053;-42
2022/06/20 05:34:36;;;;;;;12.35;2.75;;;14.00;99.90;;;;;;5011276;28;20117;-43
2022/06/20 05:37:06;;;;;;;7.95;2.80;;;14.10;99.90;;;;;;4994946;28;20053;-43
2022/06/20 05:39:34;;;;;;;12.15;3.05;;;14.20;99.90;;;;;;4995003;28;20046;-43
2022/06/20 05:42:00;;;;;;;11.13;3.08;;;14.30;99.90;;;;;;5012221;28;20049;-42
2022/06/20 05:44:27;;;;;;;12.50;3.45;;;14.40;99.90;;;;;;4993961;28;20092;-43
2022/06/20 05:46:56;;;;;;;14.93;3.90;;;14.50;99.90;;;;;;4994688;28;20081;-43
2022/06/20 05:49:25;;;;;;;14.63;3.40;;;14.60;99.90;;;;;;4994227;28;20046;-43
2022/06/20 05:51:52;;;;;;;10.45;3.67;;;14.70;99.90;;;;;;4995022;28;20056;-43
2022/06/20 05:54:21;;;;;;;11.52;3.25;;;14.90;99.80;;;;;;5010642;28;20046;-43
2022/06/20 05:56:50;;;;;;;10.52;3.08;;;15.00;99.70;;;;;;4996350;28;20429;-43
2022/06/20 05:59:27;;;;;;;19.40;3.67;;;15.20;99.60;;;;;;5014544;28;20080;-44
2022/06/20 06:01:55;;;;;;;12.35;3.92;;;15.30;99.30;;;;;;5014350;28;20087;-44
2022/06/20 06:04:24;;;;;;;12.57;3.40;;;15.40;98.90;;;;;;5019773;28;20095;-43
2022/06/20 06:06:53;;;;;;;10.73;3.33;;;15.50;98.80;;;;;;5014987;28;20453;-43
2022/06/20 06:09:25;;;;;;;15.93;4.10;;;15.60;98.50;;;;;;4994663;28;20104;-42
2022/06/20 06:11:54;;;;;;;12.88;3.92;;;15.70;98.40;;;;;;4988842;28;20125;-44
2022/06/20 06:14:23;;;;;;;12.82;3.63;;;15.90;98.20;;;;;;5010624;28;20046;-43
2022/06/20 06:16:53;;;;;;;11.55;3.55;;;16.00;97.90;;;;;;5000602;28;20107;-43
2022/06/20 06:19:25;;;;;;;12.63;3.70;;;16.10;97.40;;;;;;5031500;28;20049;-43
2022/06/20 06:21:52;;;;;;;9.65;3.17;;;16.30;97.20;;;;;;5018183;28;20050;-43
2022/06/20 06:24:22;;;;;;;9.95;3.08;;;16.40;97.10;;;;;;5012974;28;20050;-43
2022/06/20 06:26:49;;;;;;;15.52;3.53;;;16.60;96.70;;;;;;5029946;28;20056;-43
2022/06/20 06:29:17;;;;;;;13.05;3.55;;;16.70;96.00;;;;;;5031364;28;20084;-44
2022/06/20 06:31:46;;;;;;;10.18;3.70;;;16.70;95.70;;;;;;5020268;28;20077;-43
2022/06/20 06:34:16;;;;;;;12.20;3.95;;;16.80;95.40;;;;;;4994243;28;20112;-44
2022/06/20 06:36:44;;;;;;;15.65;4.43;;;16.90;95.10;;;;;;4994069;28;20054;-43
2022/06/20 06:39:13;;;;;;;17.27;4.30;;;16.90;94.90;;;;;;5011643;28;20046;-43
2022/06/20 06:41:45;;;;;;;11.63;3.75;;;17.00;94.90;;;;;;5009995;28;20041;-43
2022/06/20 06:44:15;;;;;;;13.57;3.60;;;17.00;95.00;;;;;;5028207;28;20056;-44
2022/06/20 06:46:43;;;;;;;13.05;3.38;;;17.10;95.20;;;;;;5033145;28;20433;-43
2022/06/20 06:49:18;;;;;;;10.30;3.30;;;17.20;95.00;;;;;;5016756;28;20057;-43
2022/06/20 06:51:49;;;;;;;11.68;3.40;;;17.40;94.80;;;;;;5028780;28;20127;-44
2022/06/20 06:54:18;;;;;;;16.80;4.18;;;17.40;94.50;;;;;;5034858;28;20172;-43
2022/06/20 06:56:49;;;;;;;13.57;3.13;;;17.40;94.30;;;;;;5017338;28;20103;-43
2022/06/20 06:59:18;;;;;;;16.60;3.67;;;17.40;94.10;;;;;;5034512;28;20420;-44
2022/06/20 07:01:46;;;;;;;13.38;3.72;;;17.50;93.80;;;;;;5024260;28;20064;-44
2022/06/20 07:04:16;;;;;;;9.63;3.15;;;17.50;93.50;;;;;;4997625;28;20075;-43
2022/06/20 07:06:46;;;;;;;8.82;2.95;;;17.60;93.40;;;;;;4997460;28;20049;-43
2022/06/20 07:09:14;;;;;;;11.57;3.30;;;17.60;93.30;;;;;;5012489;28;20077;-43
2022/06/20 07:11:43;;;;;;;12.77;3.08;;;17.60;93.00;;;;;;5025031;28;20092;-44
2022/06/20 07:14:15;;;;;;;10.32;3.40;;;17.60;93.00;;;;;;5034114;28;20048;-44
2022/06/20 07:16:44;;;;;;;9.93;3.08;;;17.60;92.70;;;;;;5034655;28;20136;-44
2022/06/20 07:19:12;;;;;;;11.57;3.00;;;17.80;92.50;;;;;;5032287;28;20045;-45
2022/06/20 07:21:40;;;;;;;9.23;2.85;;;18.00;92.20;;;;;;5025158;28;20069;-42
2022/06/20 07:24:08;;;;;;;9.48;2.58;;;18.10;91.60;;;;;;5001255;28;20069;-44
2022/06/20 07:26:39;;;;;;;10.50;2.78;;;18.30;91.40;;;;;;5007548;28;20075;-44
2022/06/20 07:29:08;;;;;;;13.45;3.70;;;18.40;91.10;;;;;;5034557;28;20037;-43
2022/06/20 07:31:38;;;;;;;8.80;2.63;;;18.50;90.60;;;;;;5034346;28;20049;-44
2022/06/20 07:34:08;;;;;;;10.55;2.85;;;18.40;90.00;;;;;;5025597;28;20429;-44
2022/06/20 07:36:41;;;;;;;11.85;2.90;;;18.40;90.20;;;;;;5014415;28;20045;-44
2022/06/20 07:39:12;;;;;;;12.65;3.00;;;18.60;90.20;;;;;;4994900;28;20053;-43
2022/06/20 07:41:40;;;;;;;9.57;3.13;;;18.60;89.80;;;;;;4989904;28;20085;-44
2022/06/20 07:44:08;;;;;;;11.70;3.22;;;18.70;89.50;;;;;;4994518;28;20093;-43
2022/06/20 07:46:40;;;;;;;9.90;3.00;;;18.90;90.10;;;;;;4997002;28;20056;-44
2022/06/20 07:49:10;;;;;;;11.90;3.08;;;19.10;88.50;;;;;;4984467;28;20058;-43
2022/06/20 07:51:38;;;;;;;12.13;2.75;;;19.30;87.30;;;;;;4999065;28;20641;-44
2022/06/20 07:54:08;;;;;;;9.48;3.08;;;19.40;86.60;;;;;;5013893;28;20116;-44
2022/06/20 07:56:38;;;;;;;9.18;2.55;;;19.60;86.50;;;;;;5012571;28;20163;-44
2022/06/20 07:59:07;;;;;;;10.57;2.53;;;19.70;85.40;;;;;;5003029;28;20386;-43
2022/06/20 08:01:42;;;;;;;9.90;2.97;;;19.80;84.40;;;;;;4996681;28;20046;-42
2022/06/20 08:04:10;;;;;;;9.15;2.28;;;19.80;84.20;;;;;;5014106;28;20084;-43
2022/06/20 08:06:38;;;;;;;7.00;2.25;;;19.60;84.30;;;;;;5011972;28;20049;-43
2022/06/20 08:09:07;;;;;;;10.68;2.45;;;19.70;83.90;;;;;;4988456;28;20125;-43
2022/06/20 08:11:42;;;;;;;8.73;2.58;;;19.80;84.00;;;;;;4986576;28;20045;-43
2022/06/20 08:14:15;;;;;;;15.15;3.00;;;20.00;84.10;;;;;;4994141;28;20046;-42
2022/06/20 08:16:43;;;;;;;8.45;2.40;;;20.20;83.40;;;;;;4994179;28;20133;-42
2022/06/20 08:19:10;;;;;;;7.13;2.70;;;20.30;81.70;;;;;;4993166;28;20093;-43
2022/06/20 08:21:38;;;;;;;7.72;2.55;;;20.30;81.10;;;;;;4976909;28;20086;-43
2022/06/20 08:24:06;;;;;;;10.57;2.85;;;20.40;81.60;;;;;;4976716;28;20086;-42
2022/06/20 08:26:37;;;;;;;8.60;2.75;;;20.60;81.10;;;;;;4993975;28;20054;-44
2022/06/20 08:29:06;;;;;;;11.13;2.42;;;20.90;80.40;;;;;;4992388;28;20443;-44
2022/06/20 08:31:35;;;;;;;7.53;2.20;;;21.00;80.50;;;;;;4993939;28;20042;-44
2022/06/20 08:34:11;;;;;;;9.02;2.22;;;21.00;79.40;;;;;;4976432;28;20046;-43
2022/06/20 08:36:41;;;;;;;18.80;2.30;;;21.10;78.40;;;;;;4993817;28;20138;-43
2022/06/20 08:39:10;;;;;;;7.72;1.95;;;21.30;76.60;;;;;;4975142;28;20054;-42
2022/06/20 08:41:52;;;;;;;6.60;2.03;;;21.30;76.30;;;;;;4986154;28;20050;-43
2022/06/20 08:44:47;;;;;;;10.75;1.90;;;21.30;75.50;;;;;;4993532;28;20047;-43
2022/06/20 08:47:41;;;;;;;8.15;1.80;;;21.30;74.90;;;;;;4993493;28;20089;-43
2022/06/20 08:50:43;;;;;;;8.32;2.17;;;21.30;75.80;;;;;;4991889;28;20050;-43
2022/06/20 08:53:33;;;;;;;7.18;2.55;;;21.40;76.30;;;;;;4973369;28;20425;-43
2022/06/20 08:56:08;;;;;;;10.13;2.28;;;21.60;76.80;;;;;;4993282;28;20717;-44
2022/06/20 08:58:39;;;;;;;7.68;2.30;;;21.70;76.10;;;;;;4992993;28;20049;-43
2022/06/20 09:01:10;;;;;;;6.65;1.77;;;21.70;74.90;;;;;;4992701;28;20104;-43
2022/06/20 09:03:53;;;;;;;6.87;2.00;;;21.70;74.50;;;;;;4985592;28;20042;-43
2022/06/20 09:06:51;;;;;;;7.75;1.90;;;21.80;73.80;;;;;;4973385;28;20046;-43
2022/06/20 09:09:30;;;;;;;8.45;1.70;;;22.00;72.50;;;;;;4964473;28;20105;-43
2022/06/20 09:12:11;;;;;;;5.25;1.50;;;21.80;72.30;;;;;;4953227;29;20669;-43
2022/06/20 09:14:52;;;;;;;5.90;1.33;;;21.70;71.70;;;;;;4966704;28;20050;-43
2022/06/20 09:17:21;;;;;;;;;;;21.80;71.90;;;;;;4974074;28;20110;-44
2022/06/20 09:19:57;;;;;;;5.10;1.65;;;21.90;71.80;;;;;;4973380;28;19981;-43
2022/06/20 09:22:34;;;;;;;6.80;1.58;;;22.10;71.20;;;;;;4987639;28;20085;-44
2022/06/20 09:25:08;;;;;;;3.80;1.20;;;22.20;68.90;;;;;;5005881;28;20422;-43
2022/06/20 09:27:42;;;;;;;6.72;1.40;;;22.00;68.50;;;;;;4992938;28;20046;-43
2022/06/20 09:30:10;;;;;;;7.05;1.42;;;21.90;69.60;;;;;;4984255;28;20093;-43
2022/06/20 09:33:16;;;;;;;6.38;1.38;;;21.80;69.90;;;;;;4992894;28;20049;-43
2022/06/20 09:36:15;;;;;;;5.30;1.42;;;22.00;69.80;;;;;;4987118;28;20551;-42
2022/06/20 09:38:54;;;;;;;4.38;1.25;;;22.00;68.60;;;;;;5008950;28;20100;-42
2022/06/20 09:41:26;;;;;;;4.57;1.30;;;22.10;67.80;;;;;;5011919;28;20188;-42
2022/06/20 09:44:00;;;;;;;5.38;1.55;;;22.20;67.80;;;;;;5011826;28;20121;-44
2022/06/20 09:46:31;;;;;;;7.63;1.60;;;22.40;67.20;;;;;;5015772;28;20131;-43
2022/06/20 09:49:01;;;;;;;4.67;1.47;;;22.40;66.50;;;;;;5011439;28;20084;-44
2022/06/20 09:51:32;;;;;;;2.22;1.25;;;22.40;67.10;;;;;;4999915;28;20088;-44
2022/06/20 09:54:03;;;;;;;4.68;1.52;;;22.20;67.80;;;;;;4993722;28;20100;-43
2022/06/20 09:56:33;;;;;;;7.03;1.42;;;22.20;68.30;;;;;;5012127;28;20057;-43
2022/06/20 09:59:04;;;;;;;5.45;1.90;;;22.10;68.80;;;;;;4995964;28;20077;-44
2022/06/20 10:01:33;;;;;;;6.72;1.60;;;22.10;68.00;;;;;;5012126;28;20386;-44
2022/06/20 10:04:03;;;;;;;5.25;1.90;;;22.00;68.40;;;;;;4989063;28;20074;-44
2022/06/20 10:06:37;;;;;;;7.07;1.80;;;22.00;69.00;;;;;;5012020;28;20054;-44
2022/06/20 10:09:10;;;;;;;9.85;1.67;;;22.00;67.60;;;;;;5011367;28;20125;-44
2022/06/20 10:11:40;;;;;;;5.95;1.85;;;21.80;68.10;;;;;;5012280;28;20112;-44
2022/06/20 10:14:11;;;;;;;7.82;1.67;;;21.80;68.60;;;;;;4994380;28;20060;-43
2022/06/20 10:16:41;;;;;;;7.13;1.67;;;21.70;68.80;;;;;;5015807;28;20049;-44
2022/06/20 10:19:12;;;;;;;6.10;1.58;;;21.80;69.70;;;;;;5015613;28;20100;-43
2022/06/20 10:21:41;;;;;;;10.50;2.30;;;22.00;69.30;;;;;;5015675;28;20090;-44
2022/06/20 10:24:31;;;;;;;9.60;1.77;;;22.20;67.90;;;;;;5014839;28;20299;-43
2022/06/20 10:27:16;;;;;;;11.18;1.80;;;22.30;67.40;;;;;;5015861;28;20101;-43
2022/06/20 10:29:52;;;;;;;11.50;2.33;;;22.30;67.90;;;;;;5007022;28;20366;-44
2022/06/20 10:32:23;;;;;;;7.72;1.90;;;22.20;68.40;;;;;;5015804;28;20777;-44
2022/06/20 10:34:53;;;;;;;10.97;1.67;;;22.20;68.30;;;;;;5015655;28;20539;-44
2022/06/20 10:37:25;;;;;;;10.00;2.20;;;22.10;67.70;;;;;;5015904;28;20053;-44
2022/06/20 10:39:57;;;;;;;9.23;2.00;;;22.00;67.90;;;;;;5007477;28;20045;-44
2022/06/20 10:42:31;;;;;;;8.77;1.88;;;22.10;68.70;;;;;;4984792;28;20422;-43
2022/06/20 10:45:08;;;;;;;8.30;1.80;;;22.30;68.20;;;;;;5015841;28;20049;-42
2022/06/20 10:47:39;;;;;;;7.15;1.48;;;22.60;68.40;;;;;;5016539;28;20366;-43
2022/06/20 10:50:11;;;;;;;;;;;22.90;67.20;;;;;;5002143;28;20066;-44
2022/06/20 10:52:49;;;;;;;9.80;1.85;;;22.90;67.80;;;;;;4975169;28;20000;-44
2022/06/20 10:55:26;;;;;;;8.32;2.10;;;22.90;66.10;;;;;;5016488;28;20198;-44
2022/06/20 10:57:56;;;;;;;7.20;1.60;;;22.80;66.00;;;;;;5002791;28;20116;-44
2022/06/20 11:00:25;;;;;;;6.60;1.38;;;22.80;65.30;;;;;;4995842;28;20133;-44
2022/06/20 11:03:17;;;;;;;5.15;1.20;;;22.70;65.80;;;;;;4996480;28;20085;-43
2022/06/20 11:05:46;;;;;;;4.85;1.52;;;22.70;66.10;;;;;;4989956;28;20047;-43
2022/06/20 11:08:23;;;;;;;7.97;1.38;;;22.90;65.70;;;;;;4979032;28;20057;-43
2022/06/20 11:11:11;;;;;;;4.25;1.20;;;23.20;64.90;;;;;;4976968;28;20073;-44
2022/06/20 11:13:43;;;;;;;5.63;1.10;;;23.40;61.70;;;;;;4976796;28;20089;-43
2022/06/20 11:16:14;;;;;;;5.85;1.08;;;23.30;62.00;;;;;;4994504;28;20046;-44
2022/06/20 11:18:48;;;;;;;7.95;1.80;;;23.20;62.40;;;;;;5008585;28;20134;-44
2022/06/20 11:21:18;;;;;;;6.60;1.83;;;23.20;62.20;;;;;;4990802;28;20442;-44
2022/06/20 11:23:50;;;;;;;5.72;1.55;;;23.00;62.50;;;;;;4979050;28;20054;-44
2022/06/20 11:26:22;;;;;;;9.35;1.88;;;22.70;63.30;;;;;;4977378;28;20104;-43
2022/06/20 11:29:01;;;;;;;6.72;1.50;;;22.60;64.20;;;;;;4978797;28;20112;-42
2022/06/20 11:31:36;;;;;;;6.05;1.85;;;22.50;63.00;;;;;;4978950;28;20085;-43
2022/06/20 11:34:33;;;;;;;8.10;1.65;;;22.60;64.10;;;;;;4996209;28;20081;-44
2022/06/20 11:37:08;;;;;;;6.22;1.80;;;22.80;62.90;;;;;;4993123;28;20393;-43
2022/06/20 11:39:45;;;;;;;4.63;1.38;;;23.00;61.00;;;;;;5007544;28;20168;-44
2022/06/20 11:42:23;;;;;;;5.55;1.50;;;23.10;60.10;;;;;;5015535;28;20053;-43
2022/06/20 11:44:57;;;;;;;7.55;1.35;;;23.10;60.10;;;;;;4983728;28;20109;-44
2022/06/20 11:47:48;;;;;;;8.18;1.33;;;23.10;61.20;;;;;;5013960;28;20096;-44
2022/06/20 11:50:19;;;;;;;;;;;23.20;60.60;;;;;;5007295;28;20129;-43
2022/06/20 11:52:52;;;;;;;7.13;1.70;;;23.30;62.00;;;;;;5015455;28;19917;-43
2022/06/20 11:55:22;;;;;;;4.65;1.27;;;23.40;61.60;;;;;;4996017;28;20050;-43
2022/06/20 11:57:52;;;;;;;6.35;1.27;;;23.40;61.80;;;;;;5015057;28;20762;-43
2022/06/20 12:00:20;;;;;;;4.72;1.42;;;23.70;61.00;;;;;;5015129;28;20088;-44
2022/06/20 12:02:53;;;;;;;4.68;1.70;;;24.00;60.30;;;;;;5015095;28;20077;-43
2022/06/20 12:05:28;;;;;;;8.63;1.70;;;24.20;60.80;;;;;;5014276;28;20104;-43
2022/06/20 12:07:57;;;;;;;8.95;1.95;;;24.20;61.50;;;;;;5014284;28;20042;-43
2022/06/20 12:10:30;;;;;;;9.52;1.90;;;24.20;62.00;;;;;;4997416;28;20116;-44
2022/06/20 12:13:01;;;;;;;7.88;1.52;;;24.20;62.80;;;;;;4997580;28;20129;-44
2022/06/20 12:15:43;;;;;;;7.25;1.88;;;24.30;61.60;;;;;;4997559;28;20093;-44
2022/06/20 12:18:19;;;;;;;5.88;1.58;;;24.50;61.90;;;;;;4984050;28;20097;-44
2022/06/20 12:23:32;;;;;;;5.47;1.40;;;24.90;60.70;;;;;;5014444;28;20069;-44
2022/06/20 12:26:01;;;;;;;6.78;1.65;;;25.10;59.90;;;;;;4995095;28;20093;-43
2022/06/20 12:28:33;;;;;;;6.60;1.55;;;25.20;60.20;;;;;;4995372;28;20054;-43
2022/06/20 12:31:11;;;;;;;5.72;1.60;;;25.30;60.00;;;;;;5014608;28;20111;-44
2022/06/20 12:33:39;;;;;;;7.22;2.00;;;25.30;58.80;;;;;;4997305;28;20134;-43
2022/06/20 12:36:07;;;;;;;4.78;1.55;;;25.30;58.60;;;;;;4991014;28;20517;-43
2022/06/20 12:38:37;;;;;;;5.72;1.40;;;25.30;57.50;;;;;;4985374;28;20054;-44
2022/06/20 12:41:06;;;;;;;4.35;1.40;;;25.20;58.00;;;;;;4977640;28;20101;-43
2022/06/20 12:43:38;;;;;;;5.97;1.60;;;25.00;58.20;;;;;;4994496;28;20507;-43
2022/06/20 12:46:32;;;;;;;6.10;1.63;;;24.60;58.60;;;;;;4977274;28;20557;-43
2022/06/20 12:49:14;;;;;;;6.00;1.55;;;24.20;60.20;;;;;;4989870;28;20046;-43
2022/06/20 12:51:47;;;;;;;7.35;1.58;;;23.90;59.60;;;;;;4970608;28;20093;-44
2022/06/20 12:54:20;;;;;;;5.43;1.30;;;23.80;60.00;;;;;;4994433;28;20129;-44
2022/06/20 12:57:06;;;;;;;5.72;1.45;;;23.80;59.50;;;;;;4993825;28;20151;-43
2022/06/20 13:00:02;;;;;;;5.80;1.67;;;23.90;59.30;;;;;;4990186;28;20054;-43
2022/06/20 13:02:42;;;;;;;4.65;1.17;;;24.20;59.50;;;;;;4993949;28;20053;-43
2022/06/20 13:05:44;;;;;;;4.03;1.33;;;24.30;59.00;;;;;;4977208;28;20072;-43
2022/06/20 13:08:41;;;;;;;3.92;1.30;;;24.60;59.70;;;;;;4976272;28;20445;-44
2022/06/20 13:11:16;;;;;;;5.85;1.35;;;24.90;58.90;;;;;;4994030;28;20580;-43
2022/06/20 13:14:03;;;;;;;4.93;1.48;;;25.00;58.30;;;;;;4986265;28;20070;-42
2022/06/20 13:16:34;;;;;;;5.70;1.38;;;25.00;58.90;;;;;;4992759;28;20050;-42
2022/06/20 13:19:20;;;;;;;13.27;2.42;;;24.80;59.20;;;;;;4994314;28;20039;-42
2022/06/20 13:21:48;;;;;;;4.35;1.60;;;24.70;59.00;;;;;;4992232;28;20105;-43